Time,TemperatureF,DewpointF,PressureIn,WindDirection,WindDirectionDegrees,WindSpeedMPH,WindSpeedGustMPH,Humidity,HourlyPrecipIn,Conditions,Clouds,dailyrainin,SoftwareType,DateUTC
2013-08-27 00:03:00,69.1,45.0,30.12,SW,225,0.0,0.0,42,0.00,CLR,CLR,0.00,WeatherDisplay:10.37,2013-08-27 04:03:00,
2013-08-27 00:18:00,68.9,44.9,30.12,SW,225,0.0,0.0,42,0.00,CLR,CLR,0.00,WeatherDisplay:10.37,2013-08-27 04:18:00,
2013-08-27 00:33:00,69.1,47.4,30.12,SW,225,0.0,1.0,46,0.00,CLR,CLR,0.00,WeatherDisplay:10.37,2013-08-27 04:33:00,
2013-08-27 00:48:00,69.3,50.9,30.12,SW,225,0.0,1.0,52,0.00,CLR,CLR,0.00,WeatherDisplay:10.37,2013-08-27 04:48:00,
2013-08-27 01:03:00,69.1,45.0,30.12,SW,225,0.0,0.0,42,0.00,CLR,CLR,0.00,WeatherDisplay:10.37,2013-08-27 05:03:00,
2013-08-27 01:18:00,68.7,44.1,30.12,SW,225,0.0,0.0,41,0.00,CLR,CLR,0.00,WeatherDisplay:10.37,2013-08-27 05:18:00,
2013-08-27 01:33:00,68.7,44.1,30.12,South,180,0.0,1.0,41,0.00,CLR,CLR,0.00,WeatherDisplay:10.37,2013-08-27 05:33:00,
2013-08-27 01:48:00,68.4,43.1,30.12,South,180,0.0,0.0,40,0.00,CLR,CLR,0.00,WeatherDisplay:10.37,2013-08-27 05:48:00,
2013-08-27 02:03:00,68.4,44.4,30.12,South,180,0.0,0.0,42,0.00,CLR,CLR,0.00,WeatherDisplay:10.37,2013-08-27 06:03:00,
2013-08-27 02:18:00,68.2,44.8,30.12,South,180,0.0,0.0,43,0.00,CLR,CLR,0.00,WeatherDisplay:10.37,2013-08-27 06:18:00,
2013-08-27 02:33:00,68.2,44.8,30.12,South,180,0.0,1.0,43,0.00,CLR,CLR,0.00,WeatherDisplay:10.37,2013-08-27 06:33:00,
2013-08-27 02:48:00,68.4,45.6,30.12,South,180,0.0,1.0,44,0.00,CLR,CLR,0.00,WeatherDisplay:10.37,2013-08-27 06:48:00,
2013-08-27 03:03:00,68.5,48.6,30.12,South,180,1.0,1.0,49,0.00,CLR,CLR,0.00,WeatherDisplay:10.37,2013-08-27 07:03:00,
2013-08-27 03:18:00,68.9,48.9,30.12,SSW,212,0.0,1.0,49,0.00,CLR,CLR,0.00,WeatherDisplay:10.37,2013-08-27 07:18:00,
2013-08-27 03:33:00,69.6,49.6,30.12,SW,225,0.0,1.0,49,0.00,CLR,CLR,0.00,WeatherDisplay:10.37,2013-08-27 07:33:00,
2013-08-27 03:48:00,70.5,49.3,30.12,SW,218,1.0,2.0,47,0.00,CLR,CLR,0.00,WeatherDisplay:10.37,2013-08-27 07:48:00,
2013-08-27 03:49:00,71.8,70.6,30.12,SSW,212,2.0,3.0,96,0.00,CLR,CLR,0.00,WeatherDisplay:10.37,2013-08-27 07:49:00,
2013-08-27 03:51:00,71.8,70.6,30.12,SSW,212,2.0,0.0,96,0.00,CLR,CLR,0.00,WeatherDisplay:10.37,2013-08-27 07:51:00,
2013-08-27 03:52:00,71.8,70.6,30.12,SSW,212,2.0,0.0,96,0.00,CLR,CLR,0.00,WeatherDisplay:10.37,2013-08-27 07:52:00,
2013-08-27 03:53:00,71.8,70.6,30.12,SSW,212,2.0,0.0,96,0.00,CLR,CLR,0.00,WeatherDisplay:10.37,2013-08-27 07:53:00,
2013-08-27 03:54:00,71.8,70.6,30.12,SSW,212,2.0,0.0,96,0.00,CLR,CLR,0.00,WeatherDisplay:10.37,2013-08-27 07:54:00,
2013-08-27 03:56:00,71.8,70.6,30.12,SSW,212,2.0,0.0,96,0.00,CLR,CLR,0.00,WeatherDisplay:10.37,2013-08-27 07:56:00,
2013-08-27 03:57:00,71.8,70.6,30.12,SSW,212,2.0,0.0,96,0.00,CLR,CLR,0.00,WeatherDisplay:10.37,2013-08-27 07:57:00,
2013-08-27 03:58:00,71.8,70.6,30.12,SSW,212,2.0,0.0,96,0.00,CLR,CLR,0.00,WeatherDisplay:10.37,2013-08-27 07:58:00,
2013-08-27 03:59:00,71.8,70.6,30.12,SSW,212,2.0,0.0,96,0.00,CLR,CLR,0.00,WeatherDisplay:10.37,2013-08-27 07:59:00,
2013-08-27 04:00:00,71.8,70.6,30.12,SSW,212,2.0,0.0,96,0.00,CLR,CLR,0.00,WeatherDisplay:10.37,2013-08-27 08:00:00,
2013-08-27 04:01:00,71.8,70.6,30.12,SSW,212,2.0,0.0,96,0.00,CLR,CLR,0.00,WeatherDisplay:10.37,2013-08-27 08:01:00,
2013-08-27 04:02:00,71.8,70.6,30.12,SSW,212,2.0,0.0,96,0.00,CLR,CLR,0.00,WeatherDisplay:10.37,2013-08-27 08:02:00,
2013-08-27 04:03:00,71.8,70.6,30.12,SSW,212,2.0,0.0,96,0.00,CLR,CLR,0.00,WeatherDisplay:10.37,2013-08-27 08:03:00,
2013-08-27 08:55:00,70.7,70.4,30.12,SW,225,3.4,3.4,99,0.00,CLR,,0.00,WeatherDisplay:10.37,2013-08-27 12:55:00,
2013-08-27 08:56:00,71.2,70.9,30.12,SSW,202,2.3,2.3,99,0.00,CLR,,0.00,WeatherDisplay:10.37,2013-08-27 12:56:00,
2013-08-27 09:01:00,71.8,70.6,30.12,South,180,2.3,2.3,96,0.00,CLR,,0.00,WeatherDisplay:10.37,2013-08-27 13:01:00,
2013-08-27 09:06:00,72.7,69.9,30.12,WSW,248,3.5,3.5,91,0.00,CLR,,0.00,WeatherDisplay:10.37,2013-08-27 13:06:00,
2013-08-27 09:11:00,73.2,70.4,30.12,SSW,202,2.3,2.3,91,0.00,CLR,,0.00,WeatherDisplay:10.37,2013-08-27 13:11:00,
2013-08-27 09:17:00,74.1,69.3,30.12,SW,225,4.6,4.6,85,0.00,BKN,,0.00,WeatherDisplay:10.37,2013-08-27 13:17:00,
2013-08-27 09:22:00,74.5,69.3,30.12,WSW,248,4.0,4.0,84,0.00,BKN,,0.00,WeatherDisplay:10.37,2013-08-27 13:22:00,
2013-08-27 09:27:00,75.4,68.4,30.12,WSW,248,3.5,3.6,79,0.00,BKN,,0.00,WeatherDisplay:10.37,2013-08-27 13:27:00,
2013-08-27 09:32:00,75.7,68.0,30.12,SW,225,4.6,4.6,77,0.00,BKN,,0.00,WeatherDisplay:10.37,2013-08-27 13:32:00,
2013-08-27 09:38:00,76.3,68.5,30.12,WSW,248,4.9,4.9,77,0.00,BKN,,0.00,WeatherDisplay:10.37,2013-08-27 13:38:00,
2013-08-27 09:43:00,76.3,68.2,30.12,SW,225,4.6,4.6,76,0.00,BKN,,0.00,WeatherDisplay:10.37,2013-08-27 13:43:00,
2013-08-27 09:47:00,76.3,67.8,30.09,WSW,248,5.9,5.9,75,0.00,BKN,,0.00,WeatherDisplay:10.37,2013-08-27 13:47:00,
2013-08-27 09:52:00,76.6,68.1,30.09,SSW,202,5.8,5.8,75,0.00,BKN,,0.00,WeatherDisplay:10.37,2013-08-27 13:52:00,
2013-08-27 09:57:00,77.0,68.5,30.09,West,270,5.8,5.8,75,0.00,BKN,,0.00,WeatherDisplay:10.37,2013-08-27 13:57:00,
2013-08-27 10:02:00,77.2,68.6,30.12,West,270,5.8,5.8,75,0.00,BKN,,0.00,WeatherDisplay:10.37,2013-08-27 14:02:00,
2013-08-27 10:07:00,77.9,69.3,30.12,WSW,248,4.6,4.6,75,0.00,BKN,,0.00,WeatherDisplay:10.37,2013-08-27 14:07:00,
2013-08-27 10:12:00,78.1,69.5,30.12,WNW,292,4.6,4.6,75,0.00,BKN,,0.00,WeatherDisplay:10.37,2013-08-27 14:12:00,
2013-08-27 10:17:00,78.1,68.7,30.12,WNW,292,5.8,5.8,73,0.00,CLR,,0.00,WeatherDisplay:10.37,2013-08-27 14:17:00,
2013-08-27 10:22:00,78.1,68.7,30.12,South,180,5.8,5.8,73,0.00,CLR,,0.00,WeatherDisplay:10.37,2013-08-27 14:22:00,
2013-08-27 10:28:00,77.9,68.5,30.12,SW,225,3.8,3.8,73,0.00,CLR,,0.00,WeatherDisplay:10.37,2013-08-27 14:28:00,
2013-08-27 10:33:00,78.4,69.1,30.12,West,270,4.6,4.6,73,0.00,CLR,,0.00,WeatherDisplay:10.37,2013-08-27 14:33:00,
2013-08-27 10:38:00,79.0,69.2,30.12,West,270,5.8,5.8,72,0.00,CLR,,0.00,WeatherDisplay:10.37,2013-08-27 14:38:00,
2013-08-27 10:43:00,79.2,69.4,30.12,West,270,5.8,5.8,72,0.00,CLR,,0.00,WeatherDisplay:10.37,2013-08-27 14:43:00,
2013-08-27 10:48:00,80.4,70.6,30.09,SW,225,5.8,5.8,72,0.00,CLR,,0.00,WeatherDisplay:10.37,2013-08-27 14:48:00,
2013-08-27 10:53:00,81.3,71.4,30.09,SW,225,6.9,6.9,72,0.00,CLR,,0.00,WeatherDisplay:10.37,2013-08-27 14:53:00,
2013-08-27 10:59:00,81.9,70.7,30.09,West,270,6.9,6.9,69,0.00,CLR,,0.00,WeatherDisplay:10.37,2013-08-27 14:59:00,
2013-08-27 11:04:00,81.7,70.5,30.09,SSW,202,6.4,6.4,69,0.00,CLR,,0.00,WeatherDisplay:10.37,2013-08-27 15:04:00,
2013-08-27 11:09:00,80.8,69.7,30.09,West,270,5.8,5.8,69,0.00,CLR,,0.00,WeatherDisplay:10.37,2013-08-27 15:09:00,
2013-08-27 11:14:00,81.1,70.0,30.09,SSW,202,6.2,6.2,69,0.00,CLR,,0.00,WeatherDisplay:10.37,2013-08-27 15:14:00,
2013-08-27 11:20:00,81.7,70.5,30.12,WNW,292,3.6,3.6,69,0.00,CLR,,0.00,WeatherDisplay:10.37,2013-08-27 15:20:00,
2013-08-27 11:25:00,80.2,69.6,30.12,West,270,5.8,5.8,70,0.00,CLR,,0.00,WeatherDisplay:10.37,2013-08-27 15:25:00,
2013-08-27 11:30:00,79.7,69.0,30.12,West,270,4.0,4.0,70,0.00,CLR,,0.00,WeatherDisplay:10.37,2013-08-27 15:30:00,
2013-08-27 11:35:00,79.5,68.9,30.12,WSW,248,4.6,4.6,70,0.00,CLR,,0.00,WeatherDisplay:10.37,2013-08-27 15:35:00,
2013-08-27 11:40:00,79.2,69.4,30.12,WSW,248,2.4,2.6,72,0.00,CLR,,0.00,WeatherDisplay:10.37,2013-08-27 15:40:00,
2013-08-27 11:46:00,79.7,69.9,30.12,South,180,3.5,3.5,72,0.00,CLR,,0.00,WeatherDisplay:10.37,2013-08-27 15:46:00,
2013-08-27 11:51:00,82.2,72.3,30.12,SW,225,4.6,4.6,72,0.00,CLR,,0.00,WeatherDisplay:10.37,2013-08-27 15:51:00,
2013-08-27 11:56:00,82.8,71.5,30.12,SW,225,7.4,7.4,69,0.00,CLR,,0.00,WeatherDisplay:10.37,2013-08-27 15:56:00,
2013-08-27 12:01:00,84.2,72.5,30.12,West,270,6.9,6.9,68,0.00,FEW,,0.00,WeatherDisplay:10.37,2013-08-27 16:01:00,
2013-08-27 12:06:00,84.9,73.2,30.12,West,270,5.8,5.8,68,0.00,FEW,,0.00,WeatherDisplay:10.37,2013-08-27 16:06:00,
2013-08-27 12:11:00,84.9,73.2,30.12,West,270,6.9,6.9,68,0.00,FEW,,0.00,WeatherDisplay:10.37,2013-08-27 16:11:00,
2013-08-27 12:16:00,84.6,72.8,30.12,West,270,5.8,5.8,68,0.00,FEW,,0.00,WeatherDisplay:10.37,2013-08-27 16:16:00,
2013-08-27 12:21:00,83.1,71.9,30.12,SW,225,8.1,8.1,69,0.00,FEW,,0.00,WeatherDisplay:10.37,2013-08-27 16:21:00,
2013-08-27 12:26:00,82.6,71.4,30.12,SW,225,5.8,5.8,69,0.00,FEW,,0.00,WeatherDisplay:10.37,2013-08-27 16:26:00,
2013-08-27 12:31:00,82.8,71.5,30.12,South,180,5.8,5.8,69,0.00,FEW,,0.00,WeatherDisplay:10.37,2013-08-27 16:31:00,
2013-08-27 12:36:00,83.1,71.9,30.12,WSW,248,4.7,4.7,69,0.00,FEW,,0.00,WeatherDisplay:10.37,2013-08-27 16:36:00,
2013-08-27 12:41:00,85.6,73.9,30.12,WSW,248,4.6,4.6,68,0.00,FEW,,0.00,WeatherDisplay:10.37,2013-08-27 16:41:00,
2013-08-27 12:46:00,84.9,73.2,30.12,SSW,202,6.0,6.0,68,0.00,FEW,,0.00,WeatherDisplay:10.37,2013-08-27 16:46:00,
2013-08-27 12:51:00,86.9,75.1,30.12,WSW,248,5.8,5.8,68,0.00,FEW,,0.00,WeatherDisplay:10.37,2013-08-27 16:51:00,
2013-08-27 12:56:00,87.3,75.4,30.12,SW,225,5.4,5.4,68,0.00,FEW,,0.00,WeatherDisplay:10.37,2013-08-27 16:56:00,
2013-08-27 13:01:00,88.0,76.1,30.12,West,270,4.6,4.6,68,0.00,FEW,,0.00,WeatherDisplay:10.37,2013-08-27 17:01:00,
2013-08-27 13:06:00,87.4,75.6,30.12,SW,225,6.9,6.9,68,0.00,CLR,,0.00,WeatherDisplay:10.37,2013-08-27 17:06:00,
2013-08-27 13:11:00,88.2,76.3,30.12,SW,225,6.9,6.9,68,0.00,CLR,,0.00,WeatherDisplay:10.37,2013-08-27 17:11:00,
2013-08-27 13:16:00,87.1,75.2,30.12,SW,225,6.9,6.9,68,0.00,CLR,,0.00,WeatherDisplay:10.37,2013-08-27 17:16:00,
2013-08-27 13:21:00,87.1,75.2,30.09,SW,225,8.1,8.1,68,0.00,CLR,,0.00,WeatherDisplay:10.37,2013-08-27 17:21:00,
2013-08-27 13:26:00,87.6,75.7,30.09,SW,225,4.7,4.7,68,0.00,CLR,,0.00,WeatherDisplay:10.37,2013-08-27 17:26:00,
2013-08-27 13:31:00,89.4,77.5,30.09,WSW,248,8.1,8.1,68,0.00,CLR,,0.00,WeatherDisplay:10.37,2013-08-27 17:31:00,
2013-08-27 13:36:00,90.3,77.9,30.09,SW,225,5.8,5.8,67,0.00,CLR,,0.00,WeatherDisplay:10.37,2013-08-27 17:36:00,
2013-08-27 13:41:00,91.0,78.6,30.09,SW,225,4.9,4.9,67,0.00,CLR,,0.00,WeatherDisplay:10.37,2013-08-27 17:41:00,
2013-08-27 13:46:00,89.4,77.5,30.09,SW,225,4.9,4.9,68,0.00,CLR,,0.00,WeatherDisplay:10.37,2013-08-27 17:46:00,
2013-08-27 13:51:00,90.7,78.2,30.09,West,270,4.6,4.6,67,0.00,CLR,,0.00,WeatherDisplay:10.37,2013-08-27 17:51:00,
2013-08-27 13:56:00,88.7,76.8,30.09,West,270,5.9,5.9,68,0.00,CLR,,0.00,WeatherDisplay:10.37,2013-08-27 17:56:00,
2013-08-27 14:01:00,91.2,78.7,30.09,North,0,4.6,4.6,67,0.00,CLR,,0.00,WeatherDisplay:10.37,2013-08-27 18:01:00,
2013-08-27 14:06:00,92.3,79.8,30.06,NNE,22,2.4,2.4,67,0.00,CLR,,0.00,WeatherDisplay:10.37,2013-08-27 18:06:00,
2013-08-27 14:11:00,90.5,78.0,30.06,West,270,6.9,6.9,67,0.00,CLR,,0.00,WeatherDisplay:10.37,2013-08-27 18:11:00,
2013-08-27 14:16:00,89.8,77.4,30.06,WSW,248,5.8,5.8,67,0.00,CLR,,0.00,WeatherDisplay:10.37,2013-08-27 18:16:00,
2013-08-27 14:21:00,89.8,77.4,30.06,South,180,2.9,2.9,67,0.00,FEW,,0.00,WeatherDisplay:10.37,2013-08-27 18:21:00,
2013-08-27 14:26:00,87.8,75.9,30.06,SW,225,4.6,4.6,68,0.00,FEW,,0.00,WeatherDisplay:10.37,2013-08-27 18:26:00,
2013-08-27 14:31:00,86.7,74.9,30.06,West,270,4.6,4.6,68,0.00,FEW,,0.00,WeatherDisplay:10.37,2013-08-27 18:31:00,
2013-08-27 14:36:00,87.1,75.2,30.03,South,180,4.6,4.6,68,0.00,FEW,,0.00,WeatherDisplay:10.37,2013-08-27 18:36:00,
2013-08-27 14:41:00,86.4,74.5,30.03,WSW,248,2.6,2.6,68,0.00,FEW,,0.00,WeatherDisplay:10.37,2013-08-27 18:41:00,
2013-08-27 14:46:00,86.5,74.7,30.03,West,270,4.9,4.9,68,0.00,FEW,,0.00,WeatherDisplay:10.37,2013-08-27 18:46:00,
2013-08-27 14:51:00,86.7,74.9,30.06,West,270,4.6,4.6,68,0.00,FEW,,0.00,WeatherDisplay:10.37,2013-08-27 18:51:00,
2013-08-27 14:56:00,86.4,74.5,30.06,SW,225,4.6,4.6,68,0.00,FEW,,0.00,WeatherDisplay:10.37,2013-08-27 18:56:00,
2013-08-27 15:01:00,88.2,76.3,30.06,WSW,248,5.8,5.8,68,0.00,FEW,,0.00,WeatherDisplay:10.37,2013-08-27 19:01:00,
2013-08-27 15:06:00,88.2,76.3,30.06,West,270,4.3,4.3,68,0.00,CLR,,0.00,WeatherDisplay:10.37,2013-08-27 19:06:00,
2013-08-27 15:11:00,87.3,75.4,30.06,SW,225,3.5,3.5,68,0.00,CLR,,0.00,WeatherDisplay:10.37,2013-08-27 19:11:00,
2013-08-27 15:16:00,86.7,74.9,30.06,West,270,5.8,5.8,68,0.00,CLR,,0.00,WeatherDisplay:10.37,2013-08-27 19:16:00,
2013-08-27 15:21:00,85.3,73.5,30.06,WSW,248,8.1,8.1,68,0.00,CLR,,0.00,WeatherDisplay:10.37,2013-08-27 19:21:00,
2013-08-27 15:26:00,85.8,74.0,30.06,WSW,248,4.6,4.6,68,0.00,CLR,,0.00,WeatherDisplay:10.37,2013-08-27 19:26:00,
2013-08-27 15:31:00,87.4,75.6,30.06,SW,225,4.6,4.6,68,0.00,CLR,,0.00,WeatherDisplay:10.37,2013-08-27 19:31:00,
2013-08-27 15:36:00,89.4,77.5,30.06,SSW,202,4.6,4.6,68,0.00,CLR,,0.00,WeatherDisplay:10.37,2013-08-27 19:36:00,
2013-08-27 15:41:00,89.2,77.3,30.06,South,180,3.6,3.6,68,0.00,CLR,,0.00,WeatherDisplay:10.37,2013-08-27 19:41:00,
2013-08-27 15:46:00,87.1,75.2,30.06,South,180,6.0,6.0,68,0.00,CLR,,0.00,WeatherDisplay:10.37,2013-08-27 19:46:00,
2013-08-27 15:51:00,88.2,76.3,30.03,West,270,6.9,6.9,68,0.00,CLR,,0.00,WeatherDisplay:10.37,2013-08-27 19:51:00,
2013-08-27 15:56:00,89.1,77.1,30.03,NW,315,5.8,5.9,68,0.00,CLR,,0.00,WeatherDisplay:10.37,2013-08-27 19:56:00,
2013-08-27 16:01:00,88.5,76.6,30.03,SW,225,4.9,4.9,68,0.00,CLR,,0.00,WeatherDisplay:10.37,2013-08-27 20:01:00,
2013-08-27 16:06:00,90.1,77.7,30.03,SW,225,3.5,3.5,67,0.00,CLR,,0.00,WeatherDisplay:10.37,2013-08-27 20:06:00,
2013-08-27 16:11:00,88.3,76.4,30.03,West,270,4.6,4.9,68,0.00,CLR,,0.00,WeatherDisplay:10.37,2013-08-27 20:11:00,
2013-08-27 16:16:00,90.0,77.5,30.03,West,270,3.5,3.5,67,0.00,CLR,,0.00,WeatherDisplay:10.37,2013-08-27 20:16:00,
2013-08-27 16:21:00,90.0,77.5,30.03,WSW,248,6.2,6.2,67,0.00,BKN,,0.00,WeatherDisplay:10.37,2013-08-27 20:21:00,
2013-08-27 16:26:00,90.7,78.2,30.03,NNW,338,2.9,2.9,67,0.00,BKN,,0.00,WeatherDisplay:10.37,2013-08-27 20:26:00,
2013-08-27 16:31:00,91.6,79.1,30.03,South,180,3.6,3.6,67,0.00,BKN,,0.00,WeatherDisplay:10.37,2013-08-27 20:31:00,
2013-08-27 16:36:00,91.2,78.7,30.03,WSW,248,4.6,4.6,67,0.00,BKN,,0.00,WeatherDisplay:10.37,2013-08-27 20:36:00,
2013-08-27 16:41:00,89.6,77.2,30.03,West,270,3.5,3.5,67,0.00,BKN,,0.00,WeatherDisplay:10.37,2013-08-27 20:41:00,
2013-08-27 16:46:00,91.4,78.9,30.03,NE,45,3.5,3.5,67,0.00,BKN,,0.00,WeatherDisplay:10.37,2013-08-27 20:46:00,
2013-08-27 16:51:00,90.7,78.2,30.03,SW,225,5.8,5.8,67,0.00,BKN,,0.00,WeatherDisplay:10.37,2013-08-27 20:51:00,
2013-08-27 16:56:00,89.6,77.2,30.03,SW,225,6.2,6.2,67,0.00,BKN,,0.00,WeatherDisplay:10.37,2013-08-27 20:56:00,
2013-08-27 17:01:00,90.0,77.5,30.03,West,270,4.6,4.6,67,0.00,BKN,,0.00,WeatherDisplay:10.37,2013-08-27 21:01:00,
2013-08-27 17:06:00,89.4,77.5,30.00,SW,225,5.8,5.8,68,0.00,BKN,,0.00,WeatherDisplay:10.37,2013-08-27 21:06:00,
2013-08-27 17:14:00,89.1,77.1,30.00,SW,225,6.9,6.9,68,0.00,BKN,,0.00,WeatherDisplay:10.37,2013-08-27 21:14:00,
2013-08-27 17:30:00,89.6,77.2,30.00,SW,225,5.8,5.8,67,0.00,BKN,,0.00,WeatherDisplay:10.37,2013-08-27 21:30:00,
2013-08-27 17:36:00,88.3,76.4,30.00,SW,225,5.8,5.8,68,0.00,BKN,,0.00,WeatherDisplay:10.37,2013-08-27 21:36:00,
2013-08-27 17:42:00,87.8,75.9,30.00,SW,225,4.6,4.6,68,0.00,BKN,,0.00,WeatherDisplay:10.37,2013-08-27 21:42:00,
2013-08-27 17:47:00,87.8,75.9,30.00,SW,225,5.8,5.8,68,0.00,BKN,,0.00,WeatherDisplay:10.37,2013-08-27 21:47:00,
2013-08-27 17:52:00,86.7,74.9,30.00,SW,225,4.6,4.6,68,0.00,BKN,,0.00,WeatherDisplay:10.37,2013-08-27 21:52:00,
2013-08-27 17:57:00,85.8,74.0,30.00,SW,225,5.8,5.8,68,0.00,BKN,,0.00,WeatherDisplay:10.37,2013-08-27 21:57:00,
2013-08-27 18:02:00,84.9,73.2,30.03,SW,225,6.9,6.9,68,0.00,BKN,,0.00,WeatherDisplay:10.37,2013-08-27 22:02:00,
2013-08-27 18:07:00,84.7,73.0,30.03,WSW,248,5.8,5.8,68,0.00,BKN,,0.00,WeatherDisplay:10.37,2013-08-27 22:07:00,
2013-08-27 18:12:00,84.2,72.5,30.03,West,270,4.0,4.0,68,0.00,BKN,,0.00,WeatherDisplay:10.37,2013-08-27 22:12:00,
2013-08-27 18:17:00,83.5,72.2,30.00,WSW,248,5.8,5.8,69,0.00,BKN,,0.00,WeatherDisplay:10.37,2013-08-27 22:17:00,
2013-08-27 18:22:00,83.7,72.4,30.00,WSW,248,4.6,4.6,69,0.00,BKN,,0.00,WeatherDisplay:10.37,2013-08-27 22:22:00,
2013-08-27 18:27:00,83.7,72.4,30.00,WSW,248,7.8,7.8,69,0.00,BKN,,0.00,WeatherDisplay:10.37,2013-08-27 22:27:00,
2013-08-27 18:32:00,84.2,72.5,30.00,SW,225,5.8,5.8,68,0.00,BKN,,0.00,WeatherDisplay:10.37,2013-08-27 22:32:00,
2013-08-27 18:33:00,74.5,44.3,30.06,SW,220,0.0,1.0,34,0.00,CLR,CLR,0.00,WeatherDisplay:10.37,2013-08-27 22:33:00,
2013-08-27 18:37:00,83.7,72.4,30.00,WSW,248,5.8,5.8,69,0.00,BKN,,0.00,WeatherDisplay:10.37,2013-08-27 22:37:00,
2013-08-27 18:42:00,83.5,72.2,30.00,West,270,5.4,5.4,69,0.00,BKN,,0.00,WeatherDisplay:10.37,2013-08-27 22:42:00,
2013-08-27 18:47:00,83.7,72.4,30.03,West,270,5.8,5.8,69,0.00,BKN,,0.00,WeatherDisplay:10.37,2013-08-27 22:47:00,
2013-08-27 18:48:00,74.3,44.9,30.06,SW,223,0.0,2.0,35,0.00,CLR,CLR,0.00,WeatherDisplay:10.37,2013-08-27 22:48:00,
2013-08-27 18:52:00,83.5,72.2,30.03,WSW,248,5.8,5.8,69,0.00,BKN,,0.00,WeatherDisplay:10.37,2013-08-27 22:52:00,
2013-08-27 18:57:00,83.7,72.4,30.03,WSW,248,4.6,4.6,69,0.00,BKN,,0.00,WeatherDisplay:10.37,2013-08-27 22:57:00,
2013-08-27 19:02:00,83.3,72.1,30.00,West,270,5.6,5.6,69,0.00,BKN,,0.00,WeatherDisplay:10.37,2013-08-27 23:02:00,
2013-08-27 19:03:00,74.1,44.7,30.06,SW,225,0.0,2.0,35,0.00,CLR,CLR,0.00,WeatherDisplay:10.37,2013-08-27 23:03:00,
2013-08-27 19:07:00,83.3,72.1,30.00,WSW,248,6.9,6.9,69,0.00,BKN,,0.00,WeatherDisplay:10.37,2013-08-27 23:07:00,
2013-08-27 19:12:00,83.5,72.2,30.00,WSW,248,5.8,5.8,69,0.00,BKN,,0.00,WeatherDisplay:10.37,2013-08-27 23:12:00,
2013-08-27 19:17:00,83.1,71.9,30.00,West,270,4.6,4.6,69,0.00,BKN,,0.00,WeatherDisplay:10.37,2013-08-27 23:17:00,
2013-08-27 19:18:00,73.9,44.5,30.06,SW,225,1.0,2.0,35,0.00,CLR,CLR,0.00,WeatherDisplay:10.37,2013-08-27 23:18:00,
2013-08-27 19:22:00,82.8,71.5,30.00,SW,225,8.1,8.1,69,0.00,BKN,,0.00,WeatherDisplay:10.37,2013-08-27 23:22:00,
2013-08-27 19:27:00,82.4,71.2,30.00,West,270,3.6,4.0,69,0.00,BKN,,0.00,WeatherDisplay:10.37,2013-08-27 23:27:00,
2013-08-27 19:32:00,82.4,71.2,30.00,SW,225,4.6,4.6,69,0.00,BKN,,0.00,WeatherDisplay:10.37,2013-08-27 23:32:00,
2013-08-27 19:33:00,73.8,44.4,30.06,SSW,198,0.0,2.0,35,0.00,CLR,CLR,0.00,WeatherDisplay:10.37,2013-08-27 23:33:00,
2013-08-27 19:37:00,81.9,70.7,30.00,WSW,248,5.8,5.8,69,0.00,BKN,,0.00,WeatherDisplay:10.37,2013-08-27 23:37:00,
2013-08-27 19:42:00,81.5,71.6,30.00,West,270,3.5,3.8,72,0.00,BKN,,0.00,WeatherDisplay:10.37,2013-08-27 23:42:00,
2013-08-27 19:47:00,81.5,71.6,30.00,SW,225,4.6,4.6,72,0.00,BKN,,0.00,WeatherDisplay:10.37,2013-08-27 23:47:00,
2013-08-27 19:48:00,73.8,46.6,30.03,SW,216,1.0,3.0,38,0.00,CLR,CLR,0.00,WeatherDisplay:10.37,2013-08-27 23:48:00,
2013-08-27 19:52:00,81.3,71.4,30.00,WSW,248,3.5,3.5,72,0.00,BKN,,0.00,WeatherDisplay:10.37,2013-08-27 23:52:00,
2013-08-27 19:57:00,81.0,71.1,30.00,WSW,248,2.4,2.4,72,0.00,BKN,,0.00,WeatherDisplay:10.37,2013-08-27 23:57:00,
2013-08-27 20:02:00,80.8,70.9,30.00,WSW,248,2.4,2.4,72,0.00,BKN,,0.00,WeatherDisplay:10.37,2013-08-28 00:02:00,
2013-08-27 20:03:00,73.9,48.7,30.03,SW,227,2.0,4.0,41,0.00,CLR,CLR,0.00,WeatherDisplay:10.37,2013-08-28 00:03:00,
2013-08-27 20:07:00,80.6,70.7,30.00,SW,225,2.6,2.9,72,0.00,BKN,,0.00,WeatherDisplay:10.37,2013-08-28 00:07:00,
2013-08-27 20:12:00,80.2,71.6,30.00,West,270,2.4,2.4,75,0.00,BKN,,0.00,WeatherDisplay:10.37,2013-08-28 00:12:00,
2013-08-27 20:17:00,80.1,71.4,30.03,West,270,2.4,2.4,75,0.00,CLR,,0.00,WeatherDisplay:10.37,2013-08-28 00:17:00,
2013-08-27 20:18:00,73.9,48.1,30.03,SW,224,1.0,3.0,40,0.00,CLR,CLR,0.00,WeatherDisplay:10.37,2013-08-28 00:18:00,
2013-08-27 20:22:00,79.9,71.2,30.03,SW,225,2.6,2.9,75,0.00,CLR,,0.00,WeatherDisplay:10.37,2013-08-28 00:22:00,
2013-08-27 20:27:00,79.5,70.9,30.03,WSW,248,2.3,2.3,75,0.00,CLR,,0.00,WeatherDisplay:10.37,2013-08-28 00:27:00,
2013-08-27 20:32:00,79.5,70.9,30.03,SW,225,2.3,2.3,75,0.00,CLR,,0.00,WeatherDisplay:10.37,2013-08-28 00:32:00,
2013-08-27 20:33:00,73.6,46.4,30.03,SSW,211,0.0,3.0,38,0.00,CLR,CLR,0.00,WeatherDisplay:10.37,2013-08-28 00:33:00,
2013-08-27 20:37:00,79.2,70.5,30.03,SW,225,2.0,2.0,75,0.00,CLR,,0.00,WeatherDisplay:10.37,2013-08-28 00:37:00,
2013-08-27 20:42:00,79.0,70.4,30.03,SW,225,2.3,2.3,75,0.00,CLR,,0.00,WeatherDisplay:10.37,2013-08-28 00:42:00,
2013-08-27 20:47:00,78.8,70.2,30.03,SW,225,2.0,2.0,75,0.00,CLR,,0.00,WeatherDisplay:10.37,2013-08-28 00:47:00,
2013-08-27 20:48:00,73.2,44.7,30.03,SSW,207,0.0,2.0,36,0.00,CLR,CLR,0.00,WeatherDisplay:10.37,2013-08-28 00:48:00,
2013-08-27 20:52:00,78.6,70.4,30.03,SSW,202,2.3,2.3,76,0.00,CLR,,0.00,WeatherDisplay:10.37,2013-08-28 00:52:00,
2013-08-27 20:57:00,78.4,70.2,30.03,SW,225,2.6,2.6,76,0.00,CLR,,0.00,WeatherDisplay:10.37,2013-08-28 00:57:00,
2013-08-27 21:02:00,78.3,70.1,30.03,SW,225,2.3,2.3,76,0.00,CLR,,0.00,WeatherDisplay:10.37,2013-08-28 01:02:00,
2013-08-27 21:03:00,73.0,45.9,30.03,SSW,194,1.0,2.0,38,0.00,CLR,CLR,0.00,WeatherDisplay:10.37,2013-08-28 01:03:00,
2013-08-27 21:07:00,78.3,70.1,30.03,SW,225,1.6,1.6,76,0.00,CLR,,0.00,WeatherDisplay:10.37,2013-08-28 01:07:00,
2013-08-27 21:12:00,78.1,70.3,30.03,SW,225,2.4,2.4,77,0.00,CLR,,0.00,WeatherDisplay:10.37,2013-08-28 01:12:00,
2013-08-27 21:17:00,77.9,70.9,30.03,SW,225,2.4,2.4,79,0.00,BKN,,0.00,WeatherDisplay:10.37,2013-08-28 01:17:00,
2013-08-27 21:18:00,72.7,45.6,30.00,SW,225,1.0,2.0,38,0.00,CLR,CLR,0.00,WeatherDisplay:10.37,2013-08-28 01:18:00,
2013-08-27 21:22:00,77.7,71.8,30.03,SW,225,2.4,2.4,82,0.00,BKN,,0.00,WeatherDisplay:10.37,2013-08-28 01:22:00,
2013-08-27 21:27:00,77.5,72.3,30.03,SW,225,2.4,2.4,84,0.00,BKN,,0.00,WeatherDisplay:10.37,2013-08-28 01:27:00,
2013-08-27 21:32:00,77.5,72.7,30.03,SW,225,2.4,2.4,85,0.00,BKN,,0.00,WeatherDisplay:10.37,2013-08-28 01:32:00,
2013-08-27 21:33:00,72.5,45.4,30.00,SW,221,0.0,2.0,38,0.00,CLR,CLR,0.00,WeatherDisplay:10.37,2013-08-28 01:33:00,
2013-08-27 21:37:00,77.4,72.5,30.03,West,270,2.3,2.3,85,0.00,BKN,,0.00,WeatherDisplay:10.37,2013-08-28 01:37:00,
2013-08-27 21:42:00,77.4,72.5,30.03,WSW,248,3.3,3.3,85,0.00,BKN,,0.00,WeatherDisplay:10.37,2013-08-28 01:42:00,
2013-08-27 21:47:00,77.2,72.3,30.03,SW,225,2.3,2.3,85,0.00,BKN,,0.00,WeatherDisplay:10.37,2013-08-28 01:47:00,
2013-08-27 21:48:00,72.7,47.6,29.98,SW,220,2.0,2.0,41,0.00,CLR,CLR,0.00,WeatherDisplay:10.37,2013-08-28 01:48:00,
2013-08-27 21:52:00,77.2,72.3,30.03,SW,225,2.4,2.4,85,0.00,BKN,,0.00,WeatherDisplay:10.37,2013-08-28 01:52:00,
2013-08-27 21:57:00,77.0,71.4,30.03,SW,225,2.4,2.4,83,0.00,BKN,,0.00,WeatherDisplay:10.37,2013-08-28 01:57:00,
2013-08-27 22:02:00,76.8,71.3,30.03,SW,225,1.2,1.2,83,0.00,BKN,,0.00,WeatherDisplay:10.37,2013-08-28 02:02:00,
2013-08-27 22:03:00,72.9,49.1,29.98,SW,225,2.0,4.0,43,0.00,CLR,CLR,0.00,WeatherDisplay:10.37,2013-08-28 02:03:00,
2013-08-27 22:08:00,76.5,70.9,30.03,SSW,202,1.2,0.0,83,0.00,BKN,,0.00,WeatherDisplay:10.37,2013-08-28 02:08:00,
2013-08-27 22:13:00,76.3,70.7,30.03,SSW,202,1.2,0.0,83,0.00,BKN,,0.00,WeatherDisplay:10.37,2013-08-28 02:13:00,
2013-08-27 22:18:00,76.1,70.6,30.06,South,180,2.3,2.3,83,0.00,BKN,,0.00,WeatherDisplay:10.37,2013-08-28 02:18:00,
2013-08-27 22:23:00,76.1,70.9,30.06,South,180,0.0,0.0,84,0.00,BKN,,0.00,WeatherDisplay:10.37,2013-08-28 02:23:00,
2013-08-27 22:29:00,75.9,70.7,30.06,South,180,1.6,1.6,84,0.00,BKN,,0.00,WeatherDisplay:10.37,2013-08-28 02:29:00,
2013-08-27 22:33:00,72.7,49.5,30.00,WSW,243,1.0,2.0,44,0.00,CLR,CLR,0.00,WeatherDisplay:10.37,2013-08-28 02:33:00,
2013-08-27 22:34:00,75.6,71.1,30.03,South,180,1.2,1.2,86,0.00,BKN,,0.00,WeatherDisplay:10.37,2013-08-28 02:34:00,
2013-08-27 22:39:00,75.6,71.1,30.03,South,180,1.2,1.2,86,0.00,BKN,,0.00,WeatherDisplay:10.37,2013-08-28 02:39:00,
2013-08-27 22:44:00,75.6,71.1,30.03,South,180,1.2,1.2,86,0.00,BKN,,0.00,WeatherDisplay:10.37,2013-08-28 02:44:00,
2013-08-27 22:48:00,72.7,49.5,30.00,WSW,246,1.0,3.0,44,0.00,CLR,CLR,0.00,WeatherDisplay:10.37,2013-08-28 02:48:00,
2013-08-27 22:49:00,75.4,70.9,30.06,South,180,1.2,1.2,86,0.00,BKN,,0.00,WeatherDisplay:10.37,2013-08-28 02:49:00,
2013-08-27 22:54:00,75.2,70.7,30.06,South,180,1.2,1.2,86,0.00,BKN,,0.00,WeatherDisplay:10.37,2013-08-28 02:54:00,
2013-08-27 22:59:00,75.0,70.9,30.06,SSW,202,0.0,0.0,87,0.00,BKN,,0.00,WeatherDisplay:10.37,2013-08-28 02:59:00,
2013-08-27 23:03:00,72.5,49.3,30.00,SW,223,1.0,3.0,44,0.00,CLR,CLR,0.00,WeatherDisplay:10.37,2013-08-28 03:03:00,
2013-08-27 23:04:00,75.0,70.9,30.06,SSW,202,0.0,0.0,87,0.00,BKN,,0.00,WeatherDisplay:10.37,2013-08-28 03:04:00,
2013-08-27 23:09:00,74.8,70.7,30.06,SSW,202,0.0,0.0,87,0.00,BKN,,0.00,WeatherDisplay:10.37,2013-08-28 03:09:00,
2013-08-27 23:14:00,74.8,71.0,30.06,SSW,202,0.0,0.0,88,0.00,BKN,,0.00,WeatherDisplay:10.37,2013-08-28 03:14:00,
2013-08-27 23:18:00,72.3,49.8,30.00,West,264,1.0,2.0,45,0.00,CLR,CLR,0.00,WeatherDisplay:10.37,2013-08-28 03:18:00,
2013-08-27 23:19:00,74.8,71.0,30.06,SW,225,1.2,1.6,88,0.00,BKN,,0.00,WeatherDisplay:10.37,2013-08-28 03:19:00,
2013-08-27 23:33:00,72.1,51.4,30.00,WSW,244,2.0,4.0,48,0.00,CLR,CLR,0.00,WeatherDisplay:10.37,2013-08-28 03:33:00,
2013-08-27 23:48:00,71.8,50.5,30.00,SW,229,1.0,2.0,47,0.00,CLR,CLR,0.00,WeatherDisplay:10.37,2013-08-28 03:48:00,